Venice, CA

4:01 PM PST on February 19, 2017 (GMT -0800)
Venice Silver Triangle | | Change Station
Active Advisory: High Surf Advisory Active Notice: High Surf Advisory

Elev 11 ft 33.98 °N, 118.46 °W | Updated 1 minute ago

Clear
Clear
60.3 °F
Feels Like 60.3 °F
N
1.0
Wind Variable Wind from SSW
Gusts 6.0 mph

Today
High -- | Low -- °F
--% Chance of Precip.
Yesterday
High -- | Low -- °F
Precip. -- in
Pressure 29.99 in
Visibility 10.0 miles
Clouds Clear
Dew Point 50 °F
Humidity 70%
Rainfall 0.00 in
Snow Depth Not available.
6:33 AM 5:41 PM
Last Quarter, 39% visible
METAR KSMO 192351Z 21006KT 10SM CLR 14/09 A2999 RMK AO2 SLP156 T01440094 10156 20128 51005 $
Pressure 29.99 in
Visibility 10.0 miles
Clouds Clear
Dew Point 50 °F
Humidity 70%
Rainfall 0.00 in
Snow Depth Not available.
6:33 AM 5:41 PM
Last Quarter, 39% visible
METAR KSMO 192351Z 21006KT 10SM CLR 14/09 A2999 RMK AO2 SLP156 T01440094 10156 20128 51005 $

Get Your Daily Forecast Email!

Thanks for signing up!

Be on the lookout for a verification email in your inbox.

You'll start receiving the daily forecast at 8 AM.

×

10-Day Weather Forecast

Almanac

Astronomy

Feb. 19, 2017 Rise Set
Actual Time
Civil Twilight
Nautical Twilight
Astronomical Twilight
Moon
Length of Visible Light
Length of Day
Tomorrow will be .
, % of the Moon is Illuminated

Today's Extremes

State Highs State Lows

Community

WunderPhotos

Upload Photos

1,962,540 photos uploaded!

WunderBlog® & News

Nearby

Air Quality

  Air Quality AQ Index Pollutant
Not available.

Snow Depth

Station Depth Elevation

Earthquake Activity

City Distance Mag. Time & Date
Minimum magnitude displayed is 2.5.

Coastal Water Temperatures

Place Temperature

Stations

Nearby Weather Stations

Station Location Temp. Windchill Dew Point Humidity Wind Precip. Elev Updated Type
                   

Watches & Warnings

High Surf Advisory
Issued: 1:26 PM PST Feb. 19, 2017 – National Weather Service

... High surf advisory now in effect until 4 PM PST Tuesday...

* surf... breaking waves of 9 to 13 feet will subside to 6 to 9
feet with local sets to 10 feet by this evening. The surf will
subside briefly tonight and Monday before approaching criteria
of 4-7 feet Monday night and Tuesday.

* Impacts... large waves and strong rip currents will increase
the risk of ocean drowning for swimmers and surfers. Large
breaking waves can cause injury... wash people off beaches and
rocks... and capsize small boats nearshore.

Precautionary/preparedness actions...

A high surf advisory means that high surf will affect beaches in
the advisory area... producing localized beach erosion and
dangerous swimming conditions.



Sweet